Time;durP1;ratioP1;P1;durP2;ratioP2;P2;SDS_P1;SDS_P2;PMS_P1;PMS_P2;Temp;Humidity;BMP_temperature;BMP_pressure;BME280_temperature;BME280_humidity;BME280_pressure;Samples;Min_cycle;Max_cycle;Signal;HPM_P1;HPM_P2
2022/11/21 00:01:58;;;;;;;38.22;16.17;;;;;;;2.13;100.00;100805.47;7371327;19;20025;-74
2022/11/21 00:04:28;;;;;;;31.55;14.90;;;;;;;2.15;100.00;100798.69;7369906;19;20054;-74
2022/11/21 00:06:58;;;;;;;27.52;15.30;;;;;;;2.15;100.00;100799.56;7368184;19;20011;-74
2022/11/21 00:09:32;;;;;;;31.00;14.88;;;;;;;2.18;100.00;100794.53;7372530;19;20082;-73
2022/11/21 00:12:02;;;;;;;24.60;13.77;;;;;;;2.21;100.00;100786.91;7370342;19;20015;-73
2022/11/21 00:14:32;;;;;;;31.67;15.88;;;;;;;2.29;100.00;100757.09;7371721;19;20052;-73
2022/11/21 00:17:01;;;;;;;35.40;16.90;;;;;;;2.32;100.00;100742.50;7370041;19;20018;-74
2022/11/21 00:19:31;;;;;;;34.83;16.73;;;;;;;2.33;100.00;100752.03;7370056;19;20011;-74
2022/11/21 00:22:00;;;;;;;29.75;16.15;;;;;;;2.38;100.00;100753.13;7369705;19;20021;-75
2022/11/21 00:24:32;;;;;;;30.70;14.73;;;;;;;2.39;100.00;100749.72;7369158;19;20620;-75
2022/11/21 00:27:02;;;;;;;34.92;17.55;;;;;;;2.41;100.00;100759.34;7370067;19;20015;-74
2022/11/21 00:29:32;;;;;;;26.08;16.27;;;;;;;2.42;100.00;100753.34;7372205;19;20025;-75
2022/11/21 00:32:02;;;;;;;32.65;15.70;;;;;;;2.43;100.00;100756.81;7370204;19;20025;-75
2022/11/21 00:34:31;;;;;;;35.63;17.85;;;;;;;2.44;100.00;100756.88;7372657;19;20058;-75
2022/11/21 00:37:01;;;;;;;30.02;14.15;;;;;;;2.45;100.00;100758.66;7370870;19;20008;-75
2022/11/21 00:39:33;;;;;;;31.80;14.93;;;;;;;2.47;100.00;100769.09;7369954;19;20045;-75
2022/11/21 00:42:03;;;;;;;33.25;16.75;;;;;;;2.47;100.00;100776.84;7369857;19;20487;-75
2022/11/21 00:44:32;;;;;;;31.02;15.07;;;;;;;2.48;100.00;100773.44;7369611;19;20015;-75
2022/11/21 00:47:02;;;;;;;30.42;15.30;;;;;;;2.51;100.00;100779.63;7368916;19;20118;-75
2022/11/21 00:49:32;;;;;;;38.38;17.63;;;;;;;2.54;100.00;100782.38;7372415;19;20015;-75
2022/11/21 00:52:01;;;;;;;30.25;15.50;;;;;;;2.48;100.00;100787.25;7371791;19;20192;-76
2022/11/21 00:54:34;;;;;;;35.20;18.42;;;;;;;2.46;100.00;100795.78;7367482;19;20057;-77
2022/11/21 00:57:03;;;;;;;34.10;18.35;;;;;;;2.46;100.00;100804.44;7368314;19;20389;-75
2022/11/21 00:59:33;;;;;;;42.28;19.02;;;;;;;2.42;100.00;100788.69;7370493;19;20018;-76
2022/11/21 01:02:04;;;;;;;39.88;20.10;;;;;;;2.39;100.00;100796.31;7369672;19;20017;-76
2022/11/21 01:04:35;;;;;;;40.05;19.42;;;;;;;2.34;100.00;100782.28;7368716;19;20521;-75
2022/11/21 01:07:05;;;;;;;38.50;17.98;;;;;;;2.33;100.00;100783.09;7367857;19;20022;-76
2022/11/21 01:09:37;;;;;;;39.97;17.58;;;;;;;2.27;100.00;100784.59;7369488;19;20007;-76
2022/11/21 01:12:07;;;;;;;38.97;20.23;;;;;;;2.25;100.00;100783.63;7371423;19;20025;-75
2022/11/21 01:14:37;;;;;;;41.83;20.40;;;;;;;2.22;100.00;100787.78;7371294;19;20018;-76
2022/11/21 01:17:06;;;;;;;38.28;19.65;;;;;;;2.18;100.00;100786.75;7371734;19;20038;-75
2022/11/21 01:19:36;;;;;;;40.50;19.42;;;;;;;2.19;100.00;100779.88;7376974;19;20640;-76
2022/11/21 01:22:06;;;;;;;47.78;22.17;;;;;;;2.13;100.00;100783.09;7377502;19;20514;-76
2022/11/21 01:24:38;;;;;;;46.58;20.13;;;;;;;2.10;100.00;100780.34;7380061;19;20022;-76
2022/11/21 01:27:07;;;;;;;43.25;20.77;;;;;;;2.10;100.00;100782.06;7380268;19;20511;-75
2022/11/21 01:29:37;;;;;;;44.53;22.42;;;;;;;2.11;100.00;100770.88;7379316;19;20042;-77
2022/11/21 01:32:07;;;;;;;45.05;22.05;;;;;;;2.18;100.00;100760.00;7377908;19;20499;-76
2022/11/21 01:34:36;;;;;;;43.15;20.15;;;;;;;2.14;100.00;100751.22;7378847;19;20015;-76
2022/11/21 01:37:06;;;;;;;41.22;19.27;;;;;;;2.15;100.00;100758.16;7378003;19;20011;-76
2022/11/21 01:39:38;;;;;;;38.30;19.90;;;;;;;2.21;100.00;100755.84;7380917;19;20506;-76
2022/11/21 01:42:08;;;;;;;44.10;21.33;;;;;;;2.16;100.00;100764.22;7379071;19;20020;-75
2022/11/21 01:44:49;;;;;;;46.03;20.25;;;;;;;2.11;100.00;100755.38;7379951;19;20014;-75
2022/11/21 01:47:21;;;;;;;54.00;22.77;;;;;;;2.06;100.00;100755.19;7378077;19;20097;-76
2022/11/21 01:49:55;;;;;;;44.85;20.52;;;;;;;2.07;100.00;100769.00;7378881;19;20025;-76
2022/11/21 01:52:27;;;;;;;50.17;21.65;;;;;;;2.05;100.00;100768.94;7378183;19;20017;-76
2022/11/21 01:55:04;;;;;;;46.13;20.95;;;;;;;2.05;100.00;100768.94;7375879;19;20026;-76
2022/11/21 01:57:37;;;;;;;54.08;22.48;;;;;;;2.04;100.00;100769.75;7379772;19;20014;-76
2022/11/21 02:00:12;;;;;;;36.65;19.13;;;;;;;2.05;100.00;100773.22;7376667;19;20019;-76
2022/11/21 02:02:45;;;;;;;54.35;22.95;;;;;;;2.05;100.00;100768.94;7378268;19;20011;-75
2022/11/21 02:05:18;;;;;;;46.97;20.88;;;;;;;2.05;100.00;100766.34;7379218;19;20605;-76
2022/11/21 02:07:50;;;;;;;49.28;20.55;;;;;;;2.07;100.00;100772.47;7377500;19;20021;-76
2022/11/21 02:10:24;;;;;;;58.03;22.25;;;;;;;2.06;100.00;100770.72;7377257;19;20698;-75
2022/11/21 02:12:55;;;;;;;54.33;21.20;;;;;;;2.06;100.00;100770.72;7375746;19;20679;-76
2022/11/21 02:15:28;;;;;;;74.95;23.25;;;;;;;2.06;100.00;100769.81;7376872;19;20018;-76
2022/11/21 02:17:58;;;;;;;46.83;20.40;;;;;;;2.04;100.00;100774.94;7377234;19;20015;-76
2022/11/21 02:20:30;;;;;;;63.47;22.45;;;;;;;2.05;100.00;100773.22;7378337;19;20082;-76
2022/11/21 02:23:05;;;;;;;65.93;20.58;;;;;;;2.07;100.00;100776.78;7376152;19;20025;-77
2022/11/21 02:25:40;;;;;;;60.80;19.85;;;;;;;2.07;100.00;100781.94;7378572;19;20102;-76
2022/11/21 02:28:12;;;;;;;64.80;22.67;;;;;;;2.06;100.00;100770.72;7376574;19;20014;-76
2022/11/21 02:30:44;;;;;;;50.28;20.90;;;;;;;2.12;100.00;100770.97;7373927;19;20010;-76
2022/11/21 02:33:14;;;;;;;45.30;21.10;;;;;;;2.10;100.00;100771.69;7376593;19;20131;-75
2022/11/21 02:35:44;;;;;;;50.15;21.23;;;;;;;2.11;100.00;100776.94;7373931;19;20015;-76
2022/11/21 02:38:19;;;;;;;52.47;24.20;;;;;;;2.10;100.00;100758.78;7377446;19;20014;-76
2022/11/21 02:40:57;;;;;;;79.63;23.08;;;;;;;2.12;100.00;100747.69;7376794;19;20010;-75
2022/11/21 02:43:30;;;;;;;44.13;20.48;;;;;;;2.14;100.00;100740.88;7377675;19;20018;-76
2022/11/21 02:46:00;;;;;;;51.92;21.10;;;;;;;2.14;100.00;100748.63;7375374;19;20018;-76
2022/11/21 02:48:30;;;;;;;69.78;22.02;;;;;;;2.09;100.00;100739.78;7376458;19;20329;-75
2022/11/21 02:50:59;;;;;;;55.28;20.15;;;;;;;2.10;100.00;100746.72;7376094;19;20018;-76
2022/11/21 02:53:29;;;;;;;81.70;22.25;;;;;;;2.09;100.00;100744.06;7372381;19;20019;-76
2022/11/21 02:56:02;;;;;;;40.55;18.88;;;;;;;2.10;100.00;100754.47;7374144;19;20014;-75
2022/11/21 02:58:32;;;;;;;38.10;18.73;;;;;;;2.11;100.00;100753.66;7373424;19;20048;-76
2022/11/21 03:01:01;;;;;;;57.42;21.75;;;;;;;2.12;100.00;100750.25;7378527;19;20114;-75
2022/11/21 03:03:31;;;;;;;81.88;23.85;;;;;;;2.13;100.00;100748.56;7375110;19;20036;-76
2022/11/21 03:06:01;;;;;;;83.40;21.83;;;;;;;2.12;100.00;100747.69;7375338;19;20015;-76
2022/11/21 03:08:30;;;;;;;51.17;18.55;;;;;;;2.13;100.00;100741.69;7376645;19;20025;-76
2022/11/21 03:11:03;;;;;;;75.45;21.45;;;;;;;2.09;100.00;100741.47;7373513;19;20020;-76
2022/11/21 03:13:32;;;;;;;47.95;19.15;;;;;;;2.09;100.00;100739.78;7376319;19;20016;-76
2022/11/21 03:16:02;;;;;;;52.92;19.10;;;;;;;2.10;100.00;100741.53;7371348;19;20014;-77
2022/11/21 03:18:32;;;;;;;66.40;20.65;;;;;;;2.12;100.00;100739.91;7377147;19;20022;-76
2022/11/21 03:21:01;;;;;;;63.30;19.70;;;;;;;2.08;100.00;100742.31;7372728;19;20114;-76
2022/11/21 03:23:31;;;;;;;59.85;21.27;;;;;;;2.02;100.00;100742.94;7375654;19;20074;-77
2022/11/21 03:26:03;;;;;;;49.63;20.50;;;;;;;1.99;100.00;100736.72;7372225;19;20022;-77
2022/11/21 03:28:33;;;;;;;111.75;24.10;;;;;;;1.98;100.00;100734.97;7372774;19;20011;-76
2022/11/21 03:31:02;;;;;;;160.48;28.05;;;;;;;1.94;100.00;100728.75;7373168;19;20983;-76
2022/11/21 03:33:32;;;;;;;70.45;19.10;;;;;;;1.92;100.00;100726.09;7376337;19;20025;-76
2022/11/21 03:36:02;;;;;;;71.85;21.58;;;;;;;1.94;100.00;100726.19;7373064;19;20011;-76
2022/11/21 03:38:31;;;;;;;109.60;24.17;;;;;;;1.92;100.00;100720.94;7372226;19;20015;-76
2022/11/21 03:41:28;;;;;;;66.47;20.35;;;;;;;1.94;100.00;100729.66;7373860;19;20043;-76
2022/11/21 03:43:58;;;;;;;39.08;17.40;;;;;;;1.97;100.00;100728.91;7374542;19;20044;-76
2022/11/21 03:46:28;;;;;;;106.30;22.95;;;;;;;1.90;100.00;100725.16;7375986;19;20105;-76
2022/11/21 03:48:58;;;;;;;100.88;21.65;;;;;;;1.87;100.00;100722.41;7373925;19;20010;-76
2022/11/21 03:51:28;;;;;;;75.47;20.30;;;;;;;1.90;100.00;100719.09;7375362;19;20077;-76
2022/11/21 03:53:58;;;;;;;123.30;23.73;;;;;;;1.89;100.00;100720.78;7372079;19;20022;-76
2022/11/21 03:56:30;;;;;;;96.45;21.05;;;;;;;1.93;100.00;100716.66;7372938;19;20015;-76
2022/11/21 03:59:00;;;;;;;54.83;19.25;;;;;;;1.89;100.00;100714.72;7374483;19;20014;-77
2022/11/21 04:01:29;;;;;;;41.08;18.30;;;;;;;1.88;100.00;100712.97;7374215;19;20018;-76
2022/11/21 04:04:05;;;;;;;60.28;18.55;;;;;;;1.86;100.00;100704.25;7373744;19;20745;-77
2022/11/21 04:06:34;;;;;;;92.65;24.40;;;;;;;1.83;100.00;100709.28;7373851;19;20114;-76
2022/11/21 04:09:04;;;;;;;142.98;26.95;;;;;;;1.75;100.00;100710.63;7374802;19;20010;-77
2022/11/21 04:11:36;;;;;;;37.67;17.92;;;;;;;1.78;100.00;100708.19;7375436;19;20014;-77
2022/11/21 04:14:06;;;;;;;140.63;27.15;;;;;;;1.69;100.00;100715.50;7373011;19;20925;-76
2022/11/21 04:16:36;;;;;;;56.20;18.83;;;;;;;1.68;100.00;100712.03;7373552;19;20014;-77
2022/11/21 04:19:06;;;;;;;48.88;18.70;;;;;;;1.71;100.00;100699.25;7377866;19;20014;-76
2022/11/21 04:21:35;;;;;;;58.92;18.00;;;;;;;1.73;100.00;100707.09;7375804;19;20058;-77
2022/11/21 04:24:05;;;;;;;74.88;21.55;;;;;;;1.60;100.00;100701.34;7373309;19;20025;-76
2022/11/21 04:26:38;;;;;;;49.10;18.33;;;;;;;1.69;100.00;100700.00;7369383;19;20052;-77
2022/11/21 04:29:07;;;;;;;85.25;21.65;;;;;;;1.59;100.00;100702.16;7373226;19;20017;-76
2022/11/21 04:31:37;;;;;;;33.72;17.40;;;;;;;1.59;100.00;100698.69;7373701;19;20025;-76
2022/11/21 04:34:07;;;;;;;34.17;15.55;;;;;;;1.68;100.00;100700.81;7374296;19;20051;-76
2022/11/21 04:36:36;;;;;;;36.33;16.33;;;;;;;1.65;100.00;100693.81;7370518;19;20510;-76
2022/11/21 04:39:06;;;;;;;38.47;16.10;;;;;;;1.66;100.00;100686.94;7372684;19;20010;-76
2022/11/21 04:41:38;;;;;;;37.55;16.92;;;;;;;1.64;100.00;100684.28;7372466;19;20335;-76
2022/11/21 04:44:08;;;;;;;65.22;19.92;;;;;;;1.58;100.00;100676.25;7377067;19;20029;-77
2022/11/21 04:46:37;;;;;;;43.58;16.48;;;;;;;1.57;100.00;100675.34;7374087;19;20104;-77
2022/11/21 04:49:07;;;;;;;65.45;21.27;;;;;;;1.51;100.00;100675.06;7374144;19;20011;-76
2022/11/21 04:51:36;;;;;;;31.60;16.20;;;;;;;1.54;100.00;100679.50;7374366;19;20431;-76
2022/11/21 04:54:06;;;;;;;39.67;17.70;;;;;;;1.57;100.00;100671.88;7378363;19;20022;-76
2022/11/21 04:56:39;;;;;;;41.97;17.65;;;;;;;1.55;100.00;100669.22;7380429;19;20030;-76
2022/11/21 04:59:10;;;;;;;41.03;17.70;;;;;;;1.54;100.00;100653.66;7384495;19;20074;-76
2022/11/21 05:01:40;;;;;;;35.40;16.17;;;;;;;1.57;100.00;100653.78;7383151;19;20019;-76
2022/11/21 05:04:10;;;;;;;38.80;16.85;;;;;;;1.54;100.00;100651.94;7382907;19;21008;-76
2022/11/21 05:06:39;;;;;;;46.55;17.25;;;;;;;1.52;100.00;100650.09;7381494;19;20023;-76
2022/11/21 05:09:09;;;;;;;48.40;17.17;;;;;;;1.49;100.00;100650.84;7378993;19;20018;-77
2022/11/21 05:14:25;;;;;;;75.70;21.23;;;;;;;1.51;100.00;100656.97;7380527;19;20021;-76
2022/11/21 05:16:56;;;;;;;42.13;17.75;;;;;;;1.51;100.00;100667.31;7376875;19;20102;-77
2022/11/21 05:19:25;;;;;;;37.15;16.85;;;;;;;1.55;100.00;100656.31;7380979;19;20018;-76
2022/11/21 05:21:55;;;;;;;45.72;17.23;;;;;;;1.52;100.00;100651.00;7374880;19;20311;-77
2022/11/21 05:24:25;;;;;;;55.42;18.60;;;;;;;1.52;100.00;100651.00;7377210;19;20019;-76
2022/11/21 05:26:58;;;;;;;42.13;18.85;;;;;;;1.56;100.00;100642.56;7378317;19;20015;-77
2022/11/21 05:29:28;;;;;;;43.78;17.13;;;;;;;1.57;100.00;100634.00;7379726;19;20014;-75
2022/11/21 05:31:58;;;;;;;35.83;18.20;;;;;;;1.60;100.00;100630.66;7380001;19;20015;-77
2022/11/21 05:34:27;;;;;;;55.50;18.52;;;;;;;1.58;100.00;100625.44;7384063;19;20039;-77
2022/11/21 05:36:58;;;;;;;50.15;17.10;;;;;;;1.48;100.00;100618.06;7380293;19;20055;-77
2022/11/21 05:39:28;;;;;;;54.42;18.83;;;;;;;1.46;100.00;100618.81;7380813;19;20058;-77
2022/11/21 05:42:00;;;;;;;66.80;19.73;;;;;;;1.41;100.00;100616.00;7378186;19;20685;-77
2022/11/21 05:44:29;;;;;;;41.80;16.35;;;;;;;1.39;100.00;100612.47;7377995;19;20056;-77
2022/11/21 05:46:59;;;;;;;60.80;18.33;;;;;;;1.39;100.00;100612.47;7375050;19;20018;-77
2022/11/21 05:49:29;;;;;;;29.02;15.20;;;;;;;1.43;100.00;100605.75;7378533;19;20021;-77
2022/11/21 05:51:59;;;;;;;38.63;15.20;;;;;;;1.39;100.00;100607.31;7377450;19;20025;-76
2022/11/21 05:54:30;;;;;;;39.13;15.13;;;;;;;1.42;100.00;100614.31;7375550;19;20014;-77
2022/11/21 05:57:03;;;;;;;28.00;15.30;;;;;;;1.42;100.00;100610.03;7377687;19;20093;-77
2022/11/21 05:59:32;;;;;;;32.97;15.52;;;;;;;1.42;100.00;100609.16;7379258;19;20017;-77
2022/11/21 06:04:45;;;;;;;40.10;16.02;;;;;;;1.41;100.00;100600.50;7379038;19;20070;-77
2022/11/21 06:07:14;;;;;;;38.10;16.38;;;;;;;1.43;100.00;100604.06;7378170;19;20049;-77
2022/11/21 06:09:44;;;;;;;35.50;14.85;;;;;;;1.43;100.00;100605.75;7377959;19;20021;-77
2022/11/21 06:12:16;;;;;;;27.75;14.55;;;;;;;1.45;100.00;100594.66;7375834;19;20025;-77
2022/11/21 06:14:52;;;;;;;29.55;13.80;;;;;;;1.46;100.00;100591.28;7376475;19;20017;-77
2022/11/21 06:17:22;;;;;;;33.47;16.02;;;;;;;1.50;100.00;100594.88;7375113;19;20022;-77
2022/11/21 06:19:51;;;;;;;28.90;14.70;;;;;;;1.53;100.00;100595.91;7376364;19;20010;-76
2022/11/21 06:22:21;;;;;;;28.35;14.35;;;;;;;1.55;100.00;100578.75;7376400;19;20101;-77
2022/11/21 06:24:51;;;;;;;29.20;14.90;;;;;;;1.59;100.00;100579.78;7380359;19;20018;-77
2022/11/21 06:27:23;;;;;;;39.85;17.85;;;;;;;1.60;100.00;100595.38;7379591;19;20106;-77
2022/11/21 06:29:53;;;;;;;34.58;16.23;;;;;;;1.62;100.00;100591.16;7377893;19;20024;-77
2022/11/21 06:32:23;;;;;;;34.75;15.88;;;;;;;1.67;100.00;100599.09;7377229;19;20021;-75
2022/11/21 06:34:52;;;;;;;34.45;16.52;;;;;;;1.69;100.00;100591.41;7375647;19;20018;-76
2022/11/21 06:37:22;;;;;;;27.00;14.77;;;;;;;1.72;100.00;100570.88;7374414;19;20029;-73
2022/11/21 06:39:52;;;;;;;31.90;14.88;;;;;;;1.77;100.00;100559.03;7378138;19;20086;-74
2022/11/21 06:42:24;;;;;;;30.58;15.15;;;;;;;1.79;100.00;100558.28;7376871;19;20735;-74
2022/11/21 06:44:54;;;;;;;34.15;16.98;;;;;;;1.82;100.00;100561.00;7378818;19;20022;-73
2022/11/21 06:47:23;;;;;;;30.90;15.07;;;;;;;1.84;100.00;100551.63;7374845;19;20010;-74
2022/11/21 06:49:53;;;;;;;30.92;15.10;;;;;;;1.93;100.00;100548.53;7373653;19;20026;-75
2022/11/21 06:52:23;;;;;;;34.35;14.93;;;;;;;1.93;100.00;100538.19;7375915;19;20021;-75
2022/11/21 06:54:52;;;;;;;33.20;15.50;;;;;;;1.88;100.00;100531.94;7376431;19;20230;-75
2022/11/21 06:57:24;;;;;;;29.90;14.90;;;;;;;1.87;100.00;100536.22;7378673;19;20082;-75
2022/11/21 06:59:54;;;;;;;33.45;14.98;;;;;;;1.86;100.00;100531.00;7375152;19;20022;-75
2022/11/21 07:02:23;;;;;;;30.83;15.63;;;;;;;1.87;100.00;100538.81;7378378;19;20050;-75
2022/11/21 07:04:53;;;;;;;31.58;14.90;;;;;;;1.87;100.00;100540.53;7373358;19;20019;-74
2022/11/21 07:07:23;;;;;;;29.17;15.05;;;;;;;1.87;100.00;100533.66;7375014;19;20163;-76
2022/11/21 07:09:52;;;;;;;30.60;14.98;;;;;;;1.91;100.00;100539.84;7375519;19;20037;-76
2022/11/21 07:15:08;;;;;;;29.42;14.80;;;;;;;1.94;100.00;100532.22;7374672;19;20014;-75
2022/11/21 07:17:37;;;;;;;33.85;16.00;;;;;;;1.92;100.00;100533.84;7375885;19;20026;-75
2022/11/21 07:20:08;;;;;;;41.58;17.00;;;;;;;1.91;100.00;100532.06;7374131;19;20696;-76
2022/11/21 07:22:38;;;;;;;34.58;15.00;;;;;;;1.92;100.00;100528.66;7374668;19;20019;-75
2022/11/21 07:25:08;;;;;;;35.42;15.73;;;;;;;1.91;100.00;100527.78;7379986;19;20039;-76
2022/11/21 07:27:40;;;;;;;33.95;15.45;;;;;;;1.94;100.00;100530.50;7376456;19;20027;-75
2022/11/21 07:30:11;;;;;;;42.95;15.98;;;;;;;1.90;100.00;100531.19;7376060;19;20018;-76
2022/11/21 07:32:41;;;;;;;45.45;16.83;;;;;;;1.90;100.00;100532.91;7369662;19;20014;-76
2022/11/21 07:35:11;;;;;;;26.77;13.00;;;;;;;1.91;100.00;100535.53;7374273;19;20015;-76
2022/11/21 07:37:41;;;;;;;31.42;14.88;;;;;;;1.92;100.00;100534.72;7370394;19;20018;-76
2022/11/21 07:40:11;;;;;;;36.55;14.63;;;;;;;1.91;100.00;100532.06;7377460;19;20021;-76
2022/11/21 07:42:44;;;;;;;30.30;14.25;;;;;;;1.93;100.00;100530.44;7374574;19;20018;-75
2022/11/21 07:45:15;;;;;;;30.55;15.20;;;;;;;1.89;100.00;100521.66;7376548;19;20014;-75
2022/11/21 07:47:44;;;;;;;41.10;16.05;;;;;;;1.91;100.00;100522.63;7374015;19;20519;-76
2022/11/21 07:50:14;;;;;;;56.85;16.25;;;;;;;1.90;100.00;100515.69;7376292;19;20014;-76
2022/11/21 07:52:44;;;;;;;57.50;18.15;;;;;;;1.88;100.00;100514.72;7372612;19;20024;-76
2022/11/21 07:55:14;;;;;;;43.97;16.80;;;;;;;1.85;100.00;100517.19;7373977;19;20011;-75
2022/11/21 07:57:46;;;;;;;30.25;13.85;;;;;;;1.84;100.00;100510.25;7375212;19;20042;-76
2022/11/21 08:00:17;;;;;;;41.50;15.75;;;;;;;1.82;100.00;100511.88;7370207;19;20015;-76
2022/11/21 08:02:47;;;;;;;35.65;15.15;;;;;;;1.82;100.00;100511.00;7376814;19;20024;-76
2022/11/21 08:05:16;;;;;;;29.35;15.13;;;;;;;1.83;100.00;100510.19;7373468;19;20017;-76
2022/11/21 08:07:46;;;;;;;26.98;13.43;;;;;;;1.82;100.00;100508.41;7375307;19;20500;-76
2022/11/21 08:10:17;;;;;;;24.77;13.40;;;;;;;1.84;100.00;100499.00;7375601;19;20094;-76
2022/11/21 08:12:49;;;;;;;26.75;13.25;;;;;;;1.85;100.00;100491.31;7371871;19;20042;-76
2022/11/21 08:15:19;;;;;;;29.85;14.70;;;;;;;1.86;100.00;100490.50;7374132;19;20082;-76
2022/11/21 08:17:48;;;;;;;29.85;13.82;;;;;;;1.88;100.00;100485.41;7375279;19;20014;-76
2022/11/21 08:20:18;;;;;;;27.13;13.32;;;;;;;1.89;100.00;100482.00;7373692;19;20021;-76
2022/11/21 08:22:48;;;;;;;42.92;14.82;;;;;;;1.90;100.00;100473.41;7374033;19;20067;-77
2022/11/21 08:25:18;;;;;;;28.48;14.15;;;;;;;1.93;100.00;100468.38;7375558;19;20014;-76
2022/11/21 08:27:50;;;;;;;29.63;13.75;;;;;;;1.96;100.00;100468.50;7371151;19;20021;-76
2022/11/21 08:30:19;;;;;;;32.63;13.68;;;;;;;1.96;100.00;100463.31;7371501;19;20025;-76
2022/11/21 08:32:49;;;;;;;26.33;11.85;;;;;;;1.99;100.00;100470.34;7370866;19;20015;-77
2022/11/21 08:35:19;;;;;;;24.73;13.63;;;;;;;2.05;100.00;100463.72;7368709;19;20463;-76
2022/11/21 08:37:49;;;;;;;33.25;15.20;;;;;;;2.18;100.00;100460.78;7372082;19;20455;-76
2022/11/21 08:40:19;;;;;;;26.33;13.27;;;;;;;2.21;100.00;100466.06;7371552;19;20106;-76
2022/11/21 08:42:58;;;;;;;27.00;14.40;;;;;;;2.26;100.00;100469.72;7373281;19;20156;-77
2022/11/21 08:45:27;;;;;;;27.40;13.55;;;;;;;2.29;100.00;100459.50;7369465;19;20018;-76
2022/11/21 08:47:57;;;;;;;26.17;13.48;;;;;;;2.39;100.00;100452.09;7372698;19;20042;-77
2022/11/21 08:50:28;;;;;;;29.40;14.20;;;;;;;2.49;100.00;100451.66;7370612;19;20034;-76
2022/11/21 08:53:01;;;;;;;30.80;15.07;;;;;;;2.61;100.00;100453.00;7368368;19;20325;-76
2022/11/21 08:55:32;;;;;;;26.60;13.93;;;;;;;2.70;100.00;100449.88;7368186;19;20078;-76
2022/11/21 08:58:04;;;;;;;24.92;13.32;;;;;;;2.78;100.00;100440.72;7370343;19;20105;-77
2022/11/21 09:00:34;;;;;;;25.05;13.32;;;;;;;3.08;100.00;100448.75;7368789;19;20032;-77
2022/11/21 09:03:06;;;;;;;29.20;13.07;;;;;;;3.25;100.00;100432.06;7369152;19;20045;-73
2022/11/21 09:05:35;;;;;;;25.13;12.15;;;;;;;3.30;100.00;100429.63;7369625;19;20056;-73
2022/11/21 09:08:05;;;;;;;21.80;11.45;;;;;;;3.50;100.00;100414.78;7374867;19;20029;-72
2022/11/21 09:10:35;;;;;;;24.60;11.20;;;;;;;3.53;100.00;100413.19;7373504;19;20022;-73
2022/11/21 09:13:07;;;;;;;23.98;10.20;;;;;;;3.73;100.00;100407.78;7377621;19;20026;-73
2022/11/21 09:18:21;;;;;;;22.55;10.52;;;;;;;4.09;100.00;100403.81;7373427;19;20021;-73
2022/11/21 09:21:11;;;;;;;16.67;9.02;;;;;;;4.19;100.00;100410.16;7371315;19;20011;-74
2022/11/21 09:23:57;;;;;;;22.52;9.82;;;;;;;4.20;100.00;100407.59;7375293;19;20105;-73
2022/11/21 09:26:29;;;;;;;22.17;8.63;;;;;;;4.48;100.00;100396.38;7368905;19;20102;-73
2022/11/21 09:29:15;;;;;;;20.13;7.75;;;;;;;4.54;100.00;100398.28;7361835;19;20015;-73
2022/11/21 09:31:58;;;;;;;14.98;7.97;;;;;;;4.62;100.00;100401.09;7366804;19;20586;-72
2022/11/21 09:34:30;;;;;;;15.57;5.93;;;;;;;4.70;100.00;100399.63;7366874;19;20060;-73
2022/11/21 09:37:04;;;;;;;14.57;6.82;;;;;;;4.71;100.00;100388.38;7367067;19;20031;-72
2022/11/21 09:43:17;;;;;;;19.60;7.43;;;;;;;4.92;100.00;100391.63;7375106;19;20015;-73
2022/11/21 09:48:57;;;;;;;17.03;7.37;;;;;;;5.15;100.00;100389.66;7377866;19;20014;-73
2022/11/21 09:51:29;;;;;;;16.50;7.43;;;;;;;5.23;100.00;100383.81;7365317;19;20166;-73
2022/11/21 09:54:03;;;;;;;13.65;6.75;;;;;;;5.34;100.00;100378.00;7369772;19;20015;-73
2022/11/21 09:56:38;;;;;;;18.65;7.80;;;;;;;5.36;100.00;100374.63;7372618;19;20011;-73
2022/11/21 09:59:20;;;;;;;20.67;8.45;;;;;;;5.41;100.00;100364.34;7371254;19;20014;-73
2022/11/21 10:01:53;;;;;;;18.17;8.18;;;;;;;5.42;100.00;100358.28;7380270;19;20015;-73
2022/11/21 10:04:23;;;;;;;20.23;9.00;;;;;;;5.46;100.00;100354.94;7378784;19;20115;-74
2022/11/21 10:07:02;;;;;;;24.35;8.00;;;;;;;5.51;100.00;100349.00;7377315;19;20021;-73
2022/11/21 10:09:47;;;;;;;18.60;8.35;;;;;;;5.56;100.00;100346.53;7378481;19;20014;-72
2022/11/21 10:12:39;;;;;;;23.10;9.20;;;;;;;5.62;100.00;100348.41;7376079;19;20017;-72
2022/11/21 10:15:23;;;;;;;20.17;7.82;;;;;;;5.66;100.00;100342.44;7378551;19;20014;-72
2022/11/21 10:18:36;;;;;;;20.73;8.93;;;;;;;5.75;100.00;100340.06;7375661;19;20622;-73
2022/11/21 10:21:47;;;;;;;15.98;7.85;;;;;;;5.84;100.00;100337.69;7368124;19;20014;-73
2022/11/21 10:24:40;;;;;;;17.33;8.45;;;;;;;5.87;100.00;100335.16;7371528;19;20042;-73
2022/11/21 10:27:42;;;;;;;16.52;8.02;;;;;;;5.86;100.00;100326.47;7371443;19;20025;-72
2022/11/21 10:30:16;;;;;;;;;;;;;;;5.90;100.00;100327.47;7375966;19;20093;-73
2022/11/21 10:32:53;;;;;;;19.20;8.40;;;;;;;5.99;100.00;100325.06;7370035;19;19938;-73
2022/11/21 10:35:45;;;;;;;16.40;7.70;;;;;;;6.02;100.00;100316.47;7370368;19;20033;-73
2022/11/21 10:38:26;;;;;;;22.65;9.38;;;;;;;5.99;100.00;100312.06;7373656;19;20017;-73
2022/11/21 10:41:23;;;;;;;24.25;8.93;;;;;;;5.97;100.00;100313.75;7370334;19;20014;-73
2022/11/21 10:47:01;;;;;;;17.02;7.28;;;;;;;6.09;100.00;100316.63;7376878;19;20019;-73
2022/11/21 10:49:35;;;;;;;20.08;9.02;;;;;;;6.09;100.00;100316.63;7372914;19;20007;-73
2022/11/21 10:52:14;;;;;;;16.25;8.10;;;;;;;6.13;100.00;100309.78;7373391;19;20101;-72
2022/11/21 10:55:15;;;;;;;22.50;9.00;;;;;;;6.20;100.00;100294.31;7377967;19;20024;-72
2022/11/21 10:57:51;;;;;;;18.50;8.10;;;;;;;6.27;100.00;100307.44;7376261;19;20014;-74
2022/11/21 11:00:29;;;;;;;22.33;8.05;;;;;;;6.31;100.00;100285.84;7374882;19;20007;-74
2022/11/21 11:03:17;;;;;;;16.60;7.28;;;;;;;6.32;100.00;100283.25;7371807;19;20018;-73
2022/11/21 11:06:08;;;;;;;15.73;6.95;;;;;;;6.51;100.00;100269.78;7373831;19;20018;-73
2022/11/21 11:09:09;;;;;;;15.50;7.30;;;;;;;6.61;100.00;100273.44;7370104;19;20014;-72
2022/11/21 11:11:52;;;;;;;20.30;8.88;;;;;;;6.74;100.00;100272.84;7365885;19;20019;-73
2022/11/21 11:14:32;;;;;;;20.00;7.93;;;;;;;6.81;100.00;100266.91;7371669;19;20026;-73
2022/11/21 11:17:02;;;;;;;19.05;8.48;;;;;;;6.82;100.00;100263.44;7372879;19;20928;-74
2022/11/21 11:19:32;;;;;;;17.88;7.07;;;;;;;7.00;100.00;100264.63;7372208;19;20086;-72
2022/11/21 11:22:29;;;;;;;19.92;7.07;;;;;;;7.08;100.00;100252.63;7371040;19;20132;-73
2022/11/21 11:25:05;;;;;;;20.08;8.07;;;;;;;7.00;100.00;100251.59;7373802;19;20010;-73
2022/11/21 11:27:34;;;;;;;23.58;7.82;;;;;;;7.09;100.00;100236.13;7370102;19;20121;-73
2022/11/21 11:30:09;;;;;;;19.20;7.65;;;;;;;7.07;100.00;100232.63;7373254;19;20451;-73
2022/11/21 11:32:42;;;;;;;14.35;7.65;;;;;;;7.14;100.00;100219.72;7368362;19;20030;-73
2022/11/21 11:35:23;;;;;;;26.08;6.55;;;;;;;7.03;100.00;100225.59;7369738;19;20114;-73
2022/11/21 11:38:02;;;;;;;15.45;6.13;;;;;;;7.00;100.00;100212.50;7368626;19;20014;-73
2022/11/21 11:40:39;;;;;;;15.05;5.47;;;;;;;6.99;100.00;100213.34;7368407;19;20580;-74
2022/11/21 11:50:09;;;;;;;15.10;5.97;;;;;;;7.09;100.00;100190.06;7373995;19;20487;-73
2022/11/21 11:52:26;;;;;;;10.90;4.55;;;;;;;7.09;100.00;100181.38;7370866;19;20010;-73
2022/11/21 11:55:03;;;;;;;12.18;4.20;;;;;;;7.10;100.00;100175.31;7369880;19;20014;-73
2022/11/21 11:57:38;;;;;;;13.32;5.28;;;;;;;7.08;100.00;100166.56;7367788;19;20014;-73
2022/11/21 12:00:23;;;;;;;9.88;3.90;;;;;;;6.97;100.00;100161.19;7369302;19;20484;-73
2022/11/21 12:03:00;;;;;;;13.98;4.50;;;;;;;6.92;100.00;100154.13;7368583;19;20025;-73
2022/11/21 12:05:32;;;;;;;15.65;3.97;;;;;;;6.87;100.00;100152.31;7367408;19;20015;-73